createdAt,value
2018-08-09T00:00:59.700Z,5.70
2018-08-09T00:05:54.214Z,3.77
2018-08-09T00:10:48.926Z,5.03
2018-08-09T00:15:43.382Z,5.83
2018-08-09T00:20:37.983Z,4.63
2018-08-09T00:25:32.603Z,4.23
2018-08-09T00:30:27.075Z,5.67
2018-08-09T00:35:21.546Z,4.53
2018-08-09T00:40:16.282Z,4.83
2018-08-09T00:45:10.872Z,4.80
2018-08-09T00:50:05.959Z,6.63
2018-08-09T00:55:00.712Z,7.40
2018-08-09T00:59:55.198Z,6.70
2018-08-09T01:04:49.828Z,4.53
2018-08-09T01:09:44.316Z,8.60
2018-08-09T01:14:39.139Z,3.73
2018-08-09T01:19:33.577Z,5.23
2018-08-09T01:24:28.050Z,3.73
2018-08-09T01:29:22.482Z,4.67
2018-08-09T01:34:16.947Z,5.67
2018-08-09T01:39:13.221Z,7.53
2018-08-09T01:44:08.141Z,4.13
2018-08-09T01:49:03.063Z,4.90
2018-08-09T01:53:57.548Z,3.87
2018-08-09T01:58:52.588Z,3.80
2018-08-09T02:03:47.053Z,3.03
2018-08-09T02:08:41.836Z,3.63
2018-08-09T02:13:36.445Z,3.23
2018-08-09T02:18:31.107Z,3.83
2018-08-09T02:23:25.963Z,4.77
2018-08-09T02:28:20.874Z,3.40
2018-08-09T02:33:15.440Z,4.93
2018-08-09T02:38:10.227Z,7.20
2018-08-09T02:43:04.722Z,4.47
2018-08-09T02:47:59.462Z,5.80
2018-08-09T02:52:53.955Z,4.03
2018-08-09T02:57:48.520Z,6.60
2018-08-09T03:02:44.709Z,6.53
2018-08-09T03:07:39.213Z,5.67
2018-08-09T03:12:33.966Z,5.90
2018-08-09T03:17:28.476Z,5.10
2018-08-09T03:22:22.940Z,5.90
2018-08-09T03:27:17.432Z,4.93
2018-08-09T03:32:11.980Z,7.80
2018-08-09T03:37:06.741Z,3.53
2018-08-09T03:42:01.507Z,4.47
2018-08-09T03:46:56.140Z,5.07
2018-08-09T03:51:50.594Z,5.10
2018-08-09T03:56:45.045Z,5.40
2018-08-09T04:01:39.648Z,5.20
2018-08-09T04:06:34.210Z,5.90
2018-08-09T04:11:28.712Z,5.73
2018-08-09T04:16:23.343Z,4.27
2018-08-09T04:21:18.425Z,3.83
2018-08-09T04:26:12.910Z,7.87
2018-08-09T04:31:07.811Z,5.30
2018-08-09T04:36:02.792Z,9.43
2018-08-09T04:40:57.281Z,6.73
2018-08-09T04:45:52.129Z,5.67
2018-08-09T04:50:46.600Z,5.33
2018-08-09T04:55:41.066Z,5.33
2018-08-09T05:00:35.776Z,4.47
2018-08-09T05:05:30.209Z,3.87
2018-08-09T05:10:24.921Z,5.77
2018-08-09T05:15:19.596Z,4.33
2018-08-09T05:20:14.120Z,4.80
2018-08-09T05:25:08.585Z,5.80
2018-08-09T05:30:03.768Z,6.43
2018-08-09T05:34:58.467Z,5.73
2018-08-09T05:39:52.956Z,8.50
2018-08-09T05:44:47.416Z,6.97
2018-08-09T05:49:42.207Z,9.83
2018-08-09T05:54:37.085Z,5.13
2018-08-09T05:59:31.806Z,4.73
2018-08-09T06:04:28.511Z,6.37
2018-08-09T06:09:23.936Z,7.40
2018-08-09T06:14:18.463Z,5.80
2018-08-09T06:19:13.542Z,6.17
2018-08-09T06:24:08.070Z,10.98
2018-08-09T06:29:02.743Z,5.80
2018-08-09T06:33:57.258Z,4.20
2018-08-09T06:38:51.736Z,9.43
2018-08-09T06:43:46.448Z,8.53
2018-08-09T06:48:41.000Z,4.83
2018-08-09T06:53:35.462Z,7.73
2018-08-09T06:58:29.944Z,8.40
2018-08-09T07:03:25.089Z,6.07
2018-08-09T07:08:19.827Z,7.97
2018-08-09T07:13:14.557Z,6.70
2018-08-09T07:18:09.462Z,6.73
2018-08-09T07:23:04.591Z,7.27
2018-08-09T07:27:59.336Z,7.33
2018-08-09T07:32:54.609Z,6.83
2018-08-09T07:37:49.317Z,8.27
2018-08-09T07:42:44.570Z,7.63
2018-08-09T07:47:39.394Z,5.47
2018-08-09T07:52:34.441Z,6.80
2018-08-09T07:57:29.135Z,8.77
2018-08-09T08:02:24.644Z,8.60
2018-08-09T08:07:19.412Z,6.40
2018-08-09T08:12:14.165Z,9.57
2018-08-09T08:17:09.053Z,5.93
2018-08-09T08:22:04.614Z,7.10
2018-08-09T08:26:59.369Z,5.93
2018-08-09T08:31:54.072Z,8.80
2018-08-09T08:36:48.990Z,6.17
2018-08-09T08:41:44.401Z,8.13
2018-08-09T08:46:39.437Z,7.57
2018-08-09T08:51:34.172Z,7.27
2018-08-09T08:56:28.910Z,11.10
2018-08-09T09:01:24.111Z,8.47
2018-08-09T09:06:18.990Z,6.87
2018-08-09T09:11:13.737Z,8.77
2018-08-09T09:16:08.478Z,7.67
2018-08-09T09:21:03.285Z,8.83
2018-08-09T09:25:57.995Z,6.77
2018-08-09T09:30:52.740Z,9.10
2018-08-09T09:35:47.459Z,7.20
2018-08-09T09:40:42.511Z,6.57
2018-08-09T09:45:37.289Z,10.17
2018-08-09T09:50:32.449Z,8.70
2018-08-09T09:55:27.227Z,7.33
2018-08-09T10:00:27.046Z,9.07
2018-08-09T10:05:22.210Z,9.87
2018-08-09T10:10:17.045Z,8.40
2018-08-09T10:15:12.197Z,11.07
2018-08-09T10:20:07.830Z,7.67
2018-08-09T10:25:02.582Z,8.00
2018-08-09T10:29:57.349Z,7.27
2018-08-09T10:34:52.239Z,9.40
2018-08-09T10:39:47.153Z,9.53
2018-08-09T10:44:41.862Z,6.43
2018-08-09T10:49:36.900Z,10.03
2018-08-09T10:54:31.754Z,7.67
2018-08-09T10:59:26.669Z,8.50
2018-08-09T11:04:21.417Z,8.63
2018-08-09T11:09:16.160Z,8.10
2018-08-09T11:14:10.949Z,9.83
2018-08-09T11:19:06.169Z,11.13
2018-08-09T11:24:01.395Z,10.50
2018-08-09T11:28:56.456Z,15.80
2018-08-09T11:33:51.498Z,8.30
2018-08-09T11:38:46.598Z,8.30
2018-08-09T11:43:41.600Z,9.27
2018-08-09T11:48:36.547Z,8.17
2018-08-09T11:53:31.443Z,8.27
2018-08-09T11:58:26.201Z,10.63
2018-08-09T12:03:21.180Z,11.70
2018-08-09T12:08:16.351Z,12.67
2018-08-09T12:13:11.145Z,13.00
2018-08-09T12:18:06.271Z,13.93
2018-08-09T12:23:01.368Z,9.47
2018-08-09T12:27:56.134Z,8.73
2018-08-09T12:32:50.972Z,9.20
2018-08-09T12:37:45.730Z,14.00
2018-08-09T12:42:41.345Z,10.40
2018-08-09T12:47:36.796Z,9.40
2018-08-09T12:52:31.541Z,9.33
2018-08-09T12:57:26.917Z,9.27
2018-08-09T13:02:21.715Z,8.27
2018-08-09T13:07:17.192Z,6.63
2018-08-09T13:12:11.967Z,7.03
2018-08-09T13:17:07.629Z,8.57
2018-08-09T13:22:02.424Z,8.43
2018-08-09T13:26:57.189Z,8.10
2018-08-09T13:31:51.957Z,8.20
2018-08-09T13:36:47.259Z,8.00
2018-08-09T13:41:43.258Z,7.37
2018-08-09T13:46:38.019Z,9.73
2018-08-09T13:51:32.730Z,9.67
2018-08-09T13:56:27.594Z,8.33
2018-08-09T14:01:22.025Z,8.90
2018-08-09T14:06:16.546Z,6.73
2018-08-09T14:11:11.128Z,7.00
2018-08-09T14:16:06.019Z,7.40
2018-08-09T14:21:02.851Z,7.27
2018-08-09T14:26:10.085Z,6.40
2018-08-09T14:31:10.712Z,9.17
2018-08-09T14:36:05.222Z,5.77
2018-08-09T14:41:00.202Z,10.07
2018-08-09T14:45:55.107Z,5.30
2018-08-09T14:50:50.279Z,7.97
2018-08-09T14:55:45.645Z,7.93
2018-08-09T15:00:40.961Z,5.43
2018-08-09T15:05:35.937Z,4.93
2018-08-09T15:10:31.036Z,8.63
2018-08-09T15:15:25.608Z,5.67
2018-08-09T15:20:20.372Z,5.53
2018-08-09T15:25:15.568Z,10.23
2018-08-09T15:30:15.847Z,7.30
2018-08-09T15:35:10.480Z,5.83
2018-08-09T15:40:06.048Z,8.50
2018-08-09T15:45:00.706Z,4.40
2018-08-09T15:49:55.210Z,7.87
2018-08-09T15:54:49.669Z,8.07
2018-08-09T15:59:44.566Z,4.97
2018-08-09T16:04:39.349Z,8.93
2018-08-09T16:09:33.842Z,6.37
2018-08-09T16:14:28.312Z,6.37
2018-08-09T16:19:22.823Z,6.43
2018-08-09T16:24:17.565Z,4.47
2018-08-09T16:29:12.057Z,5.07
2018-08-09T16:34:06.837Z,6.40
2018-08-09T16:39:01.621Z,5.83
2018-08-09T16:43:56.320Z,8.80
2018-08-09T16:48:50.814Z,6.30
2018-08-09T16:53:45.437Z,2.93
2018-08-09T16:58:40.123Z,4.80
2018-08-09T17:03:34.629Z,7.37
2018-08-09T17:08:29.086Z,4.40
2018-08-09T17:13:23.635Z,3.17
2018-08-09T17:18:18.620Z,3.97
2018-08-09T17:23:13.073Z,2.97
2018-08-09T17:28:07.572Z,7.97
2018-08-09T17:33:02.150Z,3.47
2018-08-09T17:37:57.132Z,5.37
2018-08-09T17:42:52.678Z,2.43
2018-08-09T17:47:47.243Z,5.07
2018-08-09T17:52:41.961Z,1.93
2018-08-09T17:57:36.422Z,3.97
2018-08-09T18:02:31.057Z,5.20
2018-08-09T18:07:25.492Z,2.73
2018-08-09T18:12:20.433Z,2.43
2018-08-09T18:17:15.466Z,2.70
2018-08-09T18:22:10.732Z,7.60
2018-08-09T18:27:05.224Z,1.50
2018-08-09T18:31:59.698Z,2.90
2018-08-09T18:36:54.244Z,2.10
2018-08-09T18:41:48.742Z,2.07
2018-08-09T18:46:43.219Z,5.43
2018-08-09T18:51:37.723Z,3.90
2018-08-09T18:56:32.288Z,3.70
2018-08-09T19:01:26.735Z,5.07
2018-08-09T19:06:21.654Z,3.00
2018-08-09T19:11:16.121Z,5.50
2018-08-09T19:16:10.625Z,1.97
2018-08-09T19:21:06.185Z,4.20
2018-08-09T19:26:00.814Z,2.03
2018-08-09T19:30:55.793Z,2.97
2018-08-09T19:35:50.371Z,3.00
2018-08-09T19:40:45.066Z,8.80
2018-08-09T19:45:39.774Z,8.13
2018-08-09T19:50:34.384Z,5.23
2018-08-09T19:55:28.892Z,3.30
2018-08-09T20:00:27.902Z,2.97
2018-08-09T20:05:22.956Z,2.83
2018-08-09T20:10:17.510Z,2.80
2018-08-09T20:15:14.456Z,2.60
2018-08-09T20:20:09.986Z,2.27
2018-08-09T20:25:05.720Z,6.30
2018-08-09T20:30:00.402Z,2.10
2018-08-09T20:34:55.094Z,2.43
2018-08-09T20:39:49.546Z,2.47
2018-08-09T20:44:44.021Z,2.50
2018-08-09T20:49:38.570Z,3.03
2018-08-09T20:54:33.244Z,7.20
2018-08-09T20:59:27.724Z,3.13
2018-08-09T21:04:22.416Z,2.53
2018-08-09T21:09:16.906Z,1.77
2018-08-09T21:14:11.604Z,2.23
2018-08-09T21:19:06.737Z,1.70
2018-08-09T21:24:02.749Z,1.50
2018-08-09T21:28:59.184Z,0.70
2018-08-09T21:33:54.535Z,1.20
2018-08-09T21:38:49.210Z,6.00
2018-08-09T21:43:43.859Z,1.10
2018-08-09T21:48:38.715Z,2.57
2018-08-09T21:53:33.175Z,1.37
2018-08-09T21:58:27.722Z,2.10
2018-08-09T22:03:27.646Z,2.87
2018-08-09T22:08:27.402Z,1.57
2018-08-09T22:13:29.391Z,1.90
2018-08-09T22:18:29.391Z,1.97
2018-08-09T22:23:24.016Z,1.70
2018-08-09T22:28:18.501Z,4.40
2018-08-09T22:33:12.982Z,1.47
2018-08-09T22:38:08.203Z,2.87
2018-08-09T22:43:02.767Z,2.37
2018-08-09T22:47:57.189Z,1.17
2018-08-09T22:52:52.323Z,1.30
2018-08-09T22:57:47.410Z,1.70
2018-08-09T23:02:41.979Z,2.47
2018-08-09T23:07:36.674Z,2.00
2018-08-09T23:12:31.254Z,2.40
2018-08-09T23:17:26.006Z,1.30
2018-08-09T23:22:20.532Z,3.10
2018-08-09T23:27:14.994Z,4.10
2018-08-09T23:32:09.540Z,3.57
2018-08-09T23:37:04.067Z,4.47
2018-08-09T23:41:58.547Z,2.50
2018-08-09T23:46:53.394Z,1.53
2018-08-09T23:51:48.060Z,2.30
2018-08-09T23:56:42.520Z,4.40
